Time;durP1;ratioP1;P1;durP2;ratioP2;P2;SDS_P1;SDS_P2;PMS_P1;PMS_P2;Temp;Humidity;BMP_temperature;BMP_pressure;BME280_temperature;BME280_humidity;BME280_pressure;Samples;Min_cycle;Max_cycle;Signal;HPM_P1;HPM_P2
2021/03/24 00:01:33;;;;;;;28.43;11.57;;;;;;;6.31;77.97;101290.35;3319708;86;98729;-79
2021/03/24 00:06:34;;;;;;;22.80;10.40;;;;;;;6.21;78.12;101292.10;3246766;89;33741;-79
2021/03/24 00:11:36;;;;;;;21.23;9.80;;;;;;;6.19;78.13;101292.42;3276743;88;98511;-76
2021/03/24 00:16:37;;;;;;;22.22;10.45;;;;;;;6.13;78.14;101292.36;3226953;90;33859;-78
2021/03/24 00:21:37;;;;;;;21.60;10.50;;;;;;;5.99;78.31;101280.82;3269139;88;98761;-79
2021/03/24 00:26:38;;;;;;;22.93;10.10;;;;;;;5.90;78.76;101287.44;3290810;87;32744;-78
2021/03/24 00:31:39;;;;;;;21.05;10.00;;;;;;;5.91;78.99;101284.94;3279680;87;98491;-77
2021/03/24 00:36:40;;;;;;;18.97;9.30;;;;;;;6.03;79.12;101285.88;3290818;88;26908;-78
2021/03/24 00:41:40;;;;;;;18.70;9.00;;;;;;;6.19;78.86;101285.59;3290296;87;98629;-78
2021/03/24 00:46:41;;;;;;;21.30;9.93;;;;;;;6.20;78.85;101283.64;3288878;88;26087;-78
2021/03/24 00:51:42;;;;;;;22.03;10.57;;;;;;;6.20;78.75;101284.45;3289934;87;98621;-78
2021/03/24 00:56:43;;;;;;;19.77;9.83;;;;;;;6.20;78.66;101280.36;3300035;88;26591;-78
2021/03/24 01:01:43;;;;;;;21.00;9.47;;;;;;;6.14;78.63;101273.47;3285478;85;98473;-78
2021/03/24 01:06:44;;;;;;;20.37;9.23;;;;;;;6.07;78.67;101281.37;3291017;88;26018;-78
2021/03/24 01:11:45;;;;;;;19.17;9.57;;;;;;;5.99;78.78;101281.37;3293824;87;98491;-78
2021/03/24 01:16:46;;;;;;;21.57;9.70;;;;;;;5.94;78.78;101280.20;3293429;88;33413;-79
2021/03/24 01:21:46;;;;;;;20.83;9.40;;;;;;;5.74;79.26;101284.36;3261529;84;98460;-79
2021/03/24 01:26:47;;;;;;;19.10;9.13;;;;;;;5.74;79.26;101284.36;3244243;90;33798;-78
2021/03/24 01:31:48;;;;;;;18.27;8.73;;;;;;;5.78;79.46;101279.08;3235264;88;98571;-79
2021/03/24 01:36:49;;;;;;;23.33;8.37;;;;;;;5.85;79.54;101276.69;3247732;90;32952;-79
2021/03/24 01:41:49;;;;;;;18.03;8.00;;;;;;;6.00;79.60;101285.73;3237450;88;98629;-79
2021/03/24 01:46:50;;;;;;;20.07;8.97;;;;;;;6.09;79.31;101286.49;3246748;88;31969;-79
2021/03/24 01:52:04;;;;;;;19.13;8.87;;;;;;;6.22;79.28;101282.19;3237745;88;98775;-78
2021/03/24 01:57:10;;;;;;;18.67;9.03;;;;;;;6.32;79.06;101277.73;3243222;88;31814;-79
2021/03/24 02:02:16;;;;;;;16.70;8.90;;;;;;;6.36;78.77;101280.05;3246367;90;26436;-78
2021/03/24 02:07:26;;;;;;;19.85;9.15;;;;;;;6.25;78.72;101280.17;3237132;88;98585;-79
2021/03/24 02:12:38;;;;;;;18.80;8.53;;;;;;;6.10;78.98;101277.97;3236931;90;31711;-79
2021/03/24 02:17:42;;;;;;;18.87;9.05;;;;;;;6.07;78.85;101282.74;3236627;89;98477;-79
2021/03/24 02:22:55;;;;;;;19.10;8.80;;;;;;;6.04;78.99;101285.30;3272384;87;33022;-79
2021/03/24 02:28:00;;;;;;;17.45;9.00;;;;;;;5.94;79.22;101288.41;3284579;87;98224;-78
2021/03/24 02:33:11;;;;;;;18.43;7.20;;;;;;;5.80;79.44;101290.51;3292452;87;31736;-79
2021/03/24 02:38:14;;;;;;;16.20;7.60;;;;;;;5.79;79.54;101291.61;3289910;87;98210;-79
2021/03/24 02:43:17;;;;;;;17.23;7.93;;;;;;;5.80;79.76;101290.51;3296219;88;31687;-79
2021/03/24 02:48:32;;;;;;;17.53;8.10;;;;;;;5.91;79.95;101287.67;3277860;87;98444;-79
2021/03/24 02:53:35;;;;;;;18.67;8.10;;;;;;;5.99;79.93;101278.64;3293152;88;31897;-79
2021/03/24 02:58:36;;;;;;;21.23;9.33;;;;;;;6.07;79.81;101284.11;3285849;86;98688;-79
2021/03/24 03:03:42;;;;;;;17.20;8.70;;;;;;;6.21;79.66;101272.97;3285383;88;31770;-79
2021/03/24 03:08:56;;;;;;;16.23;7.70;;;;;;;6.26;79.36;101278.23;3275414;87;98383;-79
2021/03/24 03:14:03;;;;;;;18.60;8.83;;;;;;;6.23;79.28;101276.95;3345336;86;32319;-78
2021/03/24 03:19:24;;;;;;;17.87;8.63;;;;;;;6.15;79.26;101272.88;3226520;90;98594;-79
2021/03/24 03:24:38;;;;;;;15.07;7.67;;;;;;;6.03;79.42;101278.23;3311219;86;31756;-79
2021/03/24 03:29:43;;;;;;;18.83;8.90;;;;;;;5.90;79.56;101271.05;3296635;88;98844;-78
2021/03/24 03:34:49;;;;;;;17.77;8.80;;;;;;;5.81;79.91;101269.70;3235105;90;31799;-79
2021/03/24 03:39:52;;;;;;;16.85;7.53;;;;;;;5.77;80.31;101276.09;3290465;88;98217;-79
2021/03/24 03:44:56;;;;;;;16.63;7.73;;;;;;;5.79;80.46;101271.13;3286225;88;31702;-79
2021/03/24 03:49:57;;;;;;;18.30;7.67;;;;;;;5.83;80.67;101271.53;3274846;88;98358;-79
2021/03/24 03:55:53;;;;;;;19.67;8.20;;;;;;;5.83;80.90;101266.07;3292718;88;31770;-79
2021/03/24 04:01:14;;;;;;;16.48;8.40;;;;;;;5.91;81.01;101268.55;3441515;82;98581;-78
2021/03/24 04:06:21;;;;;;;16.40;7.60;;;;;;;6.06;80.90;101269.40;3374418;85;32718;-79
2021/03/24 04:11:30;;;;;;;17.35;8.10;;;;;;;6.17;80.77;101272.80;3441374;83;98362;-79
2021/03/24 04:16:31;;;;;;;19.13;9.33;;;;;;;6.09;80.62;101271.46;3387278;85;31806;-79
2021/03/24 04:21:35;;;;;;;16.50;8.57;;;;;;;6.02;80.85;101269.80;3438790;83;98385;-79
2021/03/24 04:26:44;;;;;;;17.43;8.63;;;;;;;5.95;80.81;101270.30;3454784;84;32187;-79
2021/03/24 04:31:53;;;;;;;16.90;8.67;;;;;;;5.87;80.93;101269.77;3379883;85;98459;-79
2021/03/24 04:37:28;;;;;;;22.00;9.80;;;;;;;5.76;81.23;101267.11;3395349;85;25997;-79
2021/03/24 04:42:46;;;;;;;16.63;8.53;;;;;;;5.70;81.61;101268.41;3404838;85;32954;-78
2021/03/24 04:47:52;;;;;;;18.40;8.60;;;;;;;5.70;81.98;101273.87;3429750;84;99146;-79
2021/03/24 04:52:55;;;;;;;19.07;8.23;;;;;;;5.72;82.25;101278.44;3445478;84;26506;-78
2021/03/24 04:58:00;;;;;;;24.70;10.50;;;;;;;5.82;82.17;101283.59;3397946;84;98524;-78
2021/03/24 05:03:08;;;;;;;39.70;16.23;;;;;;;5.92;82.21;101283.26;3405543;85;31811;-76
2021/03/24 05:08:26;;;;;;;41.03;17.83;;;;;;;5.91;82.12;101283.58;3400019;85;98670;-78
2021/03/24 05:13:44;;;;;;;39.43;19.17;;;;;;;6.03;82.06;101287.80;3386168;84;31869;-79
2021/03/24 05:18:55;;;;;;;66.67;26.13;;;;;;;6.03;81.82;101294.08;3375073;85;98619;-79
2021/03/24 05:23:58;;;;;;;72.27;26.13;;;;;;;5.97;81.75;101297.30;3392063;84;31651;-77
2021/03/24 05:29:03;;;;;;;59.50;21.33;;;;;;;5.93;82.00;101290.87;3373971;86;98412;-78
2021/03/24 05:34:09;;;;;;;55.30;22.00;;;;;;;5.89;82.02;101303.59;3383823;85;31806;-78
2021/03/24 05:39:35;;;;;;;49.08;16.82;;;;;;;5.79;82.18;101292.97;3384768;85;98705;-78
2021/03/24 05:44:48;;;;;;;41.77;17.27;;;;;;;5.76;82.28;101298.52;3376138;85;31872;-78
2021/03/24 05:50:22;;;;;;;51.20;21.40;;;;;;;5.80;82.59;101306.90;3382736;84;98912;-78
2021/03/24 06:01:47;;;;;;;40.23;15.97;;;;;;;5.97;82.41;101308.23;3301842;84;98645;-78
2021/03/24 06:07:15;;;;;;;38.20;15.57;;;;;;;6.07;82.33;101305.16;3301831;88;31776;-78
2021/03/24 06:12:52;;;;;;;36.23;17.10;;;;;;;6.18;82.09;101314.06;3305783;88;31776;-79
2021/03/24 06:18:39;;;;;;;34.17;15.33;;;;;;;6.24;81.89;101311.37;3304711;86;98669;-79
2021/03/24 06:24:06;;;;;;;37.10;17.10;;;;;;;6.24;81.74;101312.75;3328527;86;31702;-79
2021/03/24 06:29:25;;;;;;;31.53;14.50;;;;;;;6.17;81.69;101313.80;3323704;86;98887;-79
2021/03/24 06:34:54;;;;;;;27.57;12.57;;;;;;;6.14;81.79;101309.55;3324972;86;31746;-78
2021/03/24 06:40:03;;;;;;;29.12;13.65;;;;;;;6.07;81.87;101307.89;3323783;86;98991;-77
2021/03/24 06:45:29;;;;;;;27.63;13.53;;;;;;;6.04;82.13;101316.72;3328244;86;31725;-78
2021/03/24 06:51:14;;;;;;;26.45;12.88;;;;;;;6.11;82.31;101315.69;3328509;86;98847;-77
2021/03/24 06:56:41;;;;;;;29.90;15.23;;;;;;;6.26;82.46;101323.33;3332339;86;32241;-77
2021/03/24 07:02:12;;;;;;;28.40;13.50;;;;;;;6.36;82.37;101317.52;3281076;86;98511;-77
2021/03/24 07:07:42;;;;;;;28.27;13.97;;;;;;;6.52;82.26;101319.95;3301067;86;98926;-78
2021/03/24 07:12:57;;;;;;;31.07;13.80;;;;;;;6.67;82.00;101319.41;3427523;84;32387;-79
2021/03/24 07:18:26;;;;;;;28.53;14.07;;;;;;;6.73;81.67;101327.11;3360779;84;98734;-78
2021/03/24 07:24:13;;;;;;;27.77;13.13;;;;;;;6.73;81.50;101329.84;3393067;85;32226;-79
2021/03/24 07:29:35;;;;;;;30.43;15.93;;;;;;;6.66;81.52;101336.37;3335736;86;98643;-77
2021/03/24 07:35:04;;;;;;;29.63;16.17;;;;;;;6.59;81.53;101343.48;3394905;84;31771;-76
2021/03/24 07:40:39;;;;;;;27.73;14.27;;;;;;;6.54;81.67;101339.59;3346906;86;98510;-79
2021/03/24 07:45:48;;;;;;;33.23;15.03;;;;;;;6.48;81.95;101347.70;3442873;84;31676;-79
2021/03/24 07:51:24;;;;;;;28.93;13.73;;;;;;;6.63;81.90;101344.44;3356118;85;98786;-78
2021/03/24 07:56:52;;;;;;;30.17;14.83;;;;;;;6.63;81.90;101344.44;3324515;86;31898;-78
2021/03/24 08:02:07;;;;;;;32.83;15.07;;;;;;;6.72;82.02;101340.52;3414587;83;98616;-77
2021/03/24 08:07:42;;;;;;;33.40;17.53;;;;;;;6.87;81.63;101344.08;3414253;85;32297;-79
2021/03/24 08:13:10;;;;;;;33.37;17.27;;;;;;;7.01;80.97;101346.58;3419586;85;31768;-78
2021/03/24 08:18:22;;;;;;;31.40;15.18;;;;;;;7.09;80.47;101343.79;3410012;85;98923;-79
2021/03/24 08:23:48;;;;;;;32.57;16.20;;;;;;;7.14;80.32;101331.28;3365898;85;31775;-78
2021/03/24 08:29:01;;;;;;;33.23;16.73;;;;;;;7.18;80.16;101341.81;3334243;85;98806;-80
2021/03/24 08:34:31;;;;;;;36.87;17.83;;;;;;;7.22;79.45;101346.05;3418360;84;31812;-80
2021/03/24 08:40:03;;;;;;;35.43;17.65;;;;;;;7.27;79.16;101343.13;3351570;86;98707;-80
2021/03/24 08:45:37;;;;;;;39.40;18.27;;;;;;;7.28;78.88;101347.45;3258330;86;32411;-80
2021/03/24 08:50:47;;;;;;;31.90;17.33;;;;;;;7.31;78.68;101348.17;3320867;85;98696;-80
2021/03/24 08:56:11;;;;;;;33.47;18.23;;;;;;;7.39;78.84;101337.71;3338765;86;31830;-80
2021/03/24 09:01:51;;;;;;;34.43;16.82;;;;;;;7.50;78.58;101339.73;3327273;86;98832;-77
2021/03/24 09:07:23;;;;;;;33.90;17.57;;;;;;;7.72;78.09;101342.13;3245480;88;31818;-79
2021/03/24 09:12:28;;;;;;;35.33;18.03;;;;;;;7.95;77.65;101332.95;3319597;86;31813;-79
2021/03/24 09:18:13;;;;;;;34.87;18.37;;;;;;;8.18;77.40;101339.08;3337077;86;99024;-79
2021/03/24 09:23:48;;;;;;;37.10;18.53;;;;;;;8.33;76.56;101337.09;3349995;85;31827;-79
2021/03/24 09:29:27;;;;;;;34.77;18.73;;;;;;;8.32;75.25;101334.13;3344583;85;98918;-79
2021/03/24 09:34:36;;;;;;;38.87;18.43;;;;;;;8.46;74.95;101337.92;3350531;85;31789;-80
2021/03/24 09:39:54;;;;;;;34.45;17.48;;;;;;;8.41;74.50;101338.92;3341070;85;98718;-78
2021/03/24 09:45:15;;;;;;;35.10;19.03;;;;;;;8.38;75.22;101326.47;3349952;85;32415;-78
2021/03/24 09:50:53;;;;;;;34.00;17.35;;;;;;;8.44;75.61;101326.47;3344357;85;98406;-78
2021/03/24 09:56:02;;;;;;;34.93;17.77;;;;;;;8.52;74.50;101317.36;3350576;85;31859;-78
2021/03/24 10:01:24;;;;;;;32.43;17.70;;;;;;;8.56;73.89;101324.55;3347980;85;98665;-78
2021/03/24 10:06:45;;;;;;;37.00;18.53;;;;;;;8.53;73.74;101331.30;3348759;85;31832;-79
2021/03/24 10:11:52;;;;;;;33.23;19.33;;;;;;;8.59;74.27;101325.81;3343646;85;98537;-79
2021/03/24 10:17:00;;;;;;;38.83;20.25;;;;;;;8.69;73.63;101318.51;3352513;85;26039;-79
2021/03/24 10:22:09;;;;;;;38.03;20.37;;;;;;;8.74;72.28;101314.98;3344385;85;98529;-80
2021/03/24 10:27:16;;;;;;;35.47;19.13;;;;;;;8.79;72.89;101303.74;3324572;86;99068;-79
2021/03/24 10:32:32;;;;;;;36.00;19.92;;;;;;;8.92;73.39;101299.87;3326521;87;26653;-79
2021/03/24 10:38:07;;;;;;;34.73;20.23;;;;;;;9.06;72.32;101305.00;3324237;87;98764;-79
2021/03/24 10:43:30;;;;;;;34.40;19.43;;;;;;;9.10;71.25;101303.17;3324621;86;31789;-77
2021/03/24 10:48:40;;;;;;;38.10;20.48;;;;;;;9.21;71.64;101299.58;3316520;86;99314;-78
2021/03/24 10:53:44;;;;;;;41.03;20.70;;;;;;;9.40;72.24;101305.28;3347323;85;31927;-79
2021/03/24 10:59:25;;;;;;;38.75;22.17;;;;;;;9.57;71.72;101310.48;3426067;83;98569;-80
2021/03/24 11:04:50;;;;;;;36.20;19.83;;;;;;;9.66;70.91;101300.12;3416754;84;26265;-78
2021/03/24 11:10:30;;;;;;;33.58;18.98;;;;;;;9.82;71.71;101289.20;3428790;83;98689;-81
2021/03/24 11:15:58;;;;;;;40.37;23.00;;;;;;;9.87;70.52;101285.61;3354279;86;26420;-79
2021/03/24 11:21:10;;;;;;;38.20;19.83;;;;;;;10.00;70.42;101280.84;3410459;84;98667;-79
2021/03/24 11:26:46;;;;;;;39.53;21.27;;;;;;;10.08;70.09;101271.09;3382953;84;31833;-80
2021/03/24 11:32:02;;;;;;;42.07;22.10;;;;;;;10.24;69.71;101280.75;3405554;85;99051;-79
2021/03/24 11:37:20;;;;;;;39.70;20.70;;;;;;;10.27;68.84;101280.84;3346728;86;31779;-79
2021/03/24 11:42:22;;;;;;;39.87;22.33;;;;;;;10.32;69.01;101270.13;3337410;86;32324;-79
2021/03/24 11:47:40;;;;;;;34.63;21.07;;;;;;;10.19;68.45;101259.00;3332156;85;98843;-79
2021/03/24 11:53:09;;;;;;;34.83;19.67;;;;;;;10.08;68.05;101255.95;3384698;84;31753;-79
2021/03/24 11:58:30;;;;;;;35.45;20.68;;;;;;;9.93;68.54;101250.42;3391449;84;99499;-78
2021/03/24 12:04:03;;;;;;;34.47;21.07;;;;;;;9.94;68.88;101243.20;3396218;84;32313;-78
2021/03/24 12:09:15;;;;;;;39.35;23.52;;;;;;;9.98;68.29;101234.44;3386048;85;99161;-79
2021/03/24 12:14:20;;;;;;;39.10;22.53;;;;;;;9.97;68.14;101234.82;3378898;85;31784;-79
2021/03/24 12:19:38;;;;;;;40.03;21.70;;;;;;;9.87;68.25;101226.49;3355412;85;98981;-79
2021/03/24 12:24:40;;;;;;;35.50;21.50;;;;;;;9.89;68.91;101228.33;3323698;86;26429;-78
2021/03/24 12:29:57;;;;;;;41.70;23.83;;;;;;;10.03;68.13;101222.41;3312658;86;98838;-79
2021/03/24 12:34:58;;;;;;;42.53;21.43;;;;;;;10.09;68.18;101228.67;3322897;87;31951;-79
2021/03/24 12:40:14;;;;;;;37.37;22.07;;;;;;;10.11;65.76;101219.51;3333238;86;98961;-79
2021/03/24 12:45:38;;;;;;;42.60;22.77;;;;;;;10.01;66.84;101215.06;3338787;86;31826;-79
2021/03/24 12:50:56;;;;;;;41.67;24.87;;;;;;;9.96;66.71;101220.82;3331914;86;98715;-80
2021/03/24 12:56:14;;;;;;;38.40;22.80;;;;;;;9.83;67.11;101213.81;3365843;86;32257;-80
2021/03/24 13:01:29;;;;;;;35.33;21.03;;;;;;;9.96;66.83;101213.95;3285873;87;98976;-79
2021/03/24 13:07:02;;;;;;;36.70;21.03;;;;;;;10.07;67.30;101214.48;3304981;87;29974;-77
2021/03/24 13:12:42;;;;;;;43.45;24.00;;;;;;;10.15;67.13;101205.84;3349498;85;98513;-79
2021/03/24 13:18:03;;;;;;;38.63;21.40;;;;;;;10.17;66.70;101211.20;3297678;86;99262;-79
2021/03/24 13:23:24;;;;;;;44.67;23.10;;;;;;;10.12;65.93;101205.16;3319613;86;32947;-79
2021/03/24 13:28:50;;;;;;;35.73;21.35;;;;;;;10.17;66.42;101210.40;3311043;86;98720;-79
2021/03/24 13:34:15;;;;;;;34.43;21.50;;;;;;;10.12;66.50;101203.78;3386071;85;25991;-79
2021/03/24 13:39:26;;;;;;;36.43;21.40;;;;;;;10.11;66.06;101198.06;3374547;83;99418;-79
2021/03/24 13:44:42;;;;;;;39.00;22.07;;;;;;;10.09;66.30;101194.29;3332297;86;26034;-77
2021/03/24 13:49:57;;;;;;;32.33;19.50;;;;;;;10.27;66.55;101188.67;3318961;87;98852;-78
2021/03/24 13:55:27;;;;;;;35.13;20.97;;;;;;;10.23;66.57;101196.03;3329364;87;31774;-79
2021/03/24 14:00:39;;;;;;;32.53;19.20;;;;;;;10.33;65.63;101189.18;3336824;86;99458;-79
2021/03/24 14:05:52;;;;;;;36.20;21.63;;;;;;;10.31;65.55;101195.03;3350138;86;31892;-79
2021/03/24 14:11:34;;;;;;;31.00;19.37;;;;;;;10.20;65.50;101191.22;3378862;85;98859;-79
2021/03/24 14:16:44;;;;;;;35.90;20.10;;;;;;;10.22;66.70;101191.69;3384789;85;32025;-76
2021/03/24 14:21:54;;;;;;;33.07;19.53;;;;;;;10.33;66.71;101192.75;3382174;85;98879;-79
2021/03/24 14:27:24;;;;;;;34.33;19.90;;;;;;;10.34;66.80;101192.15;3337676;86;31802;-78
2021/03/24 14:32:39;;;;;;;37.07;22.10;;;;;;;10.54;67.26;101189.69;3405808;85;26355;-80
2021/03/24 14:38:02;;;;;;;35.73;21.57;;;;;;;10.60;65.65;101180.80;3329331;85;99281;-79
2021/03/24 14:43:33;;;;;;;38.23;20.53;;;;;;;10.67;66.31;101176.83;3345155;86;32317;-79
2021/03/24 14:48:45;;;;;;;32.63;20.43;;;;;;;10.65;65.66;101178.34;3400714;84;99186;-79
2021/03/24 14:53:47;;;;;;;30.67;19.27;;;;;;;10.67;66.27;101176.83;3411692;85;31876;-81
2021/03/24 14:59:12;;;;;;;29.92;18.73;;;;;;;10.72;64.82;101170.23;3398964;83;99125;-81
2021/03/24 15:04:27;;;;;;;27.13;17.07;;;;;;;10.37;63.47;101171.59;3322278;87;31839;-81
2021/03/24 15:09:39;;;;;;;28.10;17.60;;;;;;;10.07;64.60;101162.79;3328820;86;99128;-78
2021/03/24 15:14:54;;;;;;;29.73;18.70;;;;;;;10.13;66.23;101162.74;3334843;86;32888;-78
2021/03/24 15:20:31;;;;;;;27.17;17.07;;;;;;;10.20;65.28;101168.44;3400973;84;99414;-77
2021/03/24 15:26:00;;;;;;;30.75;17.20;;;;;;;10.09;65.46;101168.16;3389674;84;25961;-79
2021/03/24 15:31:53;;;;;;;26.70;16.70;;;;;;;10.19;65.68;101169.60;3436718;84;98937;-80
2021/03/24 15:37:12;;;;;;;25.63;16.70;;;;;;;10.18;65.42;101164.66;3350745;85;32737;-78
2021/03/24 15:43:10;;;;;;;28.37;17.67;;;;;;;10.22;64.97;101164.74;3389722;86;32290;-79
2021/03/24 15:48:33;;;;;;;28.03;16.97;;;;;;;10.18;65.10;101163.85;3388427;86;99224;-78
2021/03/24 15:53:39;;;;;;;27.23;17.00;;;;;;;10.10;65.03;101164.28;3348077;87;32945;-79
2021/03/24 15:59:22;;;;;;;31.62;19.45;;;;;;;10.06;65.56;101173.58;3325201;86;99190;-79
2021/03/24 16:04:49;;;;;;;26.50;16.00;;;;;;;10.10;65.66;101172.53;3288812;88;31824;-78
2021/03/24 16:10:17;;;;;;;27.53;16.27;;;;;;;10.02;65.04;101167.97;3330470;85;98962;-79
2021/03/24 16:16:07;;;;;;;28.63;17.10;;;;;;;9.93;65.59;101171.45;3374065;86;32015;-79
2021/03/24 16:21:45;;;;;;;25.53;14.80;;;;;;;9.89;65.22;101153.28;3367952;84;98598;-79
2021/03/24 16:26:54;;;;;;;25.37;15.00;;;;;;;9.74;65.21;101157.62;3439076;84;26163;-79
2021/03/24 16:38:05;;;;;;;24.77;15.30;;;;;;;9.55;65.84;101171.23;3452415;82;98769;-79
2021/03/24 16:43:37;;;;;;;25.57;16.02;;;;;;;9.44;65.85;101165.25;3447068;83;25928;-79
2021/03/24 16:49:13;;;;;;;25.67;14.57;;;;;;;9.31;66.18;101159.01;3458598;82;98745;-79
2021/03/24 16:54:26;;;;;;;25.27;14.68;;;;;;;9.18;66.05;101160.79;3498603;82;26032;-79
2021/03/24 16:59:51;;;;;;;23.43;14.20;;;;;;;9.03;65.99;101161.52;3455571;82;98822;-80
2021/03/24 17:05:12;;;;;;;22.97;14.03;;;;;;;8.99;66.32;101158.68;3418736;85;31828;-79
2021/03/24 17:10:38;;;;;;;24.90;14.07;;;;;;;8.96;66.94;101160.77;3419185;82;98696;-79
2021/03/24 17:16:18;;;;;;;26.60;14.50;;;;;;;8.88;67.12;101153.45;3433809;83;26677;-78
2021/03/24 17:21:27;;;;;;;26.23;15.63;;;;;;;8.73;67.16;101156.14;3423263;83;98686;-79
2021/03/24 17:26:34;;;;;;;30.80;15.83;;;;;;;8.58;67.12;101165.08;3435240;83;32700;-77
2021/03/24 17:31:35;;;;;;;26.50;16.30;;;;;;;8.55;67.87;101169.31;3461362;83;98974;-79
2021/03/24 17:37:03;;;;;;;23.87;13.37;;;;;;;8.58;67.67;101167.83;3505520;82;31758;-76
2021/03/24 17:42:24;;;;;;;30.60;18.40;;;;;;;8.63;68.05;101162.91;3461153;83;99483;-77
2021/03/24 17:47:29;;;;;;;28.37;17.40;;;;;;;8.75;67.91;101166.19;3460489;84;98668;-78
2021/03/24 17:52:41;;;;;;;32.77;18.83;;;;;;;8.75;67.83;101163.44;3440728;84;31797;-77
2021/03/24 17:58:04;;;;;;;36.27;22.53;;;;;;;8.66;67.78;101167.69;3433979;83;98964;-78
2021/03/24 18:03:47;;;;;;;48.67;27.50;;;;;;;8.59;68.13;101162.00;3432842;83;31797;-78
2021/03/24 18:08:56;;;;;;;49.63;28.00;;;;;;;8.50;68.02;101170.92;3440740;82;98671;-79
2021/03/24 18:14:29;;;;;;;43.17;24.37;;;;;;;8.33;67.75;101175.28;3453728;84;33005;-76
2021/03/24 18:19:55;;;;;;;46.83;24.17;;;;;;;8.08;67.64;101169.52;3454550;83;98727;-78
2021/03/24 18:25:19;;;;;;;48.37;25.53;;;;;;;7.90;68.47;101175.00;3463814;84;31804;-79
2021/03/24 18:30:37;;;;;;;45.70;25.30;;;;;;;7.75;68.44;101175.66;3455759;84;98634;-77
2021/03/24 18:35:39;;;;;;;69.03;38.07;;;;;;;7.58;68.66;101167.63;3459124;82;32002;-79
2021/03/24 18:40:42;;;;;;;66.80;36.20;;;;;;;7.49;70.01;101168.31;3446668;83;98466;-79
2021/03/24 18:45:48;;;;;;;60.00;34.03;;;;;;;7.48;70.32;101166.69;3459146;84;31785;-79
2021/03/24 18:50:56;;;;;;;66.63;35.40;;;;;;;7.47;70.43;101165.68;3452125;83;98212;-80
2021/03/24 18:56:30;;;;;;;90.50;39.03;;;;;;;7.52;70.68;101162.73;3449420;84;31947;-79
2021/03/24 19:01:44;;;;;;;84.17;43.00;;;;;;;7.61;70.80;101156.57;3457015;84;98587;-79
2021/03/24 19:06:52;;;;;;;84.17;43.13;;;;;;;7.63;70.31;101157.83;3461168;84;31719;-79
2021/03/24 19:11:55;;;;;;;91.43;50.03;;;;;;;7.67;70.81;101156.02;3454781;82;98309;-80
2021/03/24 19:16:56;;;;;;;74.93;41.17;;;;;;;7.76;70.56;101164.14;3463471;84;31811;-79
2021/03/24 19:22:00;;;;;;;70.03;38.43;;;;;;;7.68;70.17;101158.98;3452631;82;98350;-80
2021/03/24 19:27:09;;;;;;;71.13;38.53;;;;;;;7.66;70.47;101164.58;3449692;84;98831;-80
2021/03/24 19:32:35;;;;;;;66.43;39.73;;;;;;;7.52;70.42;101159.99;3463185;82;31822;-80
2021/03/24 19:37:37;;;;;;;66.70;37.70;;;;;;;7.29;70.50;101157.39;3465244;83;31783;-79
2021/03/24 19:42:43;;;;;;;66.83;39.47;;;;;;;7.25;71.06;101146.31;3460971;83;98535;-79
2021/03/24 19:47:47;;;;;;;72.65;39.73;;;;;;;7.26;70.86;101143.02;3465885;84;25971;-78
2021/03/24 19:52:50;;;;;;;67.23;37.67;;;;;;;7.25;70.90;101145.53;3460978;84;98554;-78
2021/03/24 19:58:24;;;;;;;64.70;35.00;;;;;;;7.09;70.44;101130.28;3472045;84;32301;-79
2021/03/24 20:03:32;;;;;;;51.08;29.65;;;;;;;6.89;70.75;101126.22;3455269;83;98479;-79
2021/03/24 20:09:08;;;;;;;47.67;25.37;;;;;;;6.77;71.21;101124.22;3463651;84;26424;-77
2021/03/24 20:14:32;;;;;;;52.10;28.77;;;;;;;6.87;71.53;101118.92;3455406;84;98929;-79
2021/03/24 20:19:33;;;;;;;74.33;36.63;;;;;;;6.96;71.60;101116.89;3462424;84;32908;-79
2021/03/24 20:24:35;;;;;;;65.87;35.07;;;;;;;7.17;71.42;101119.84;3460215;84;98794;-78
2021/03/24 20:29:36;;;;;;;63.00;33.60;;;;;;;7.33;71.22;101114.52;3464711;83;31730;-80
2021/03/24 20:34:58;;;;;;;66.27;32.60;;;;;;;7.41;71.02;101111.68;3459659;84;101771;-79
2021/03/24 20:40:43;;;;;;;69.53;32.10;;;;;;;7.35;71.27;101117.14;3452669;82;32250;-80
2021/03/24 20:45:49;;;;;;;64.45;32.90;;;;;;;7.33;70.92;101113.14;3457014;84;98539;-79
2021/03/24 20:50:54;;;;;;;71.50;36.25;;;;;;;7.19;71.27;101107.19;3463271;84;26136;-79
2021/03/24 20:55:58;;;;;;;68.97;34.78;;;;;;;7.11;71.31;101114.34;3457687;84;98201;-79
2021/03/24 21:01:02;;;;;;;67.00;33.67;;;;;;;7.01;71.46;101108.48;3463726;84;31724;-78
2021/03/24 21:06:10;;;;;;;63.00;33.07;;;;;;;6.97;71.81;101115.20;3450612;82;98541;-78
2021/03/24 21:11:41;;;;;;;65.13;34.17;;;;;;;6.86;72.08;101108.53;3462245;82;31810;-78
2021/03/24 21:16:45;;;;;;;69.43;37.40;;;;;;;6.79;72.44;101112.39;3475263;82;98980;-87
2021/03/24 21:21:48;;;;;;;68.47;34.27;;;;;;;6.74;72.48;101111.22;3492573;83;33249;-87
2021/03/24 21:26:49;;;;;;;73.02;36.50;;;;;;;6.73;72.75;101113.73;3491816;82;98103;-87
2021/03/24 21:31:51;;;;;;;65.83;34.10;;;;;;;6.71;73.36;101110.52;3497267;83;32050;-87
2021/03/24 21:36:52;;;;;;;82.08;38.33;;;;;;;6.70;73.53;101102.66;3497981;83;98377;-88
2021/03/24 21:41:53;;;;;;;77.73;38.17;;;;;;;6.76;73.53;101113.05;3502418;83;31749;-87
2021/03/24 21:46:56;;;;;;;67.50;34.17;;;;;;;6.87;73.56;101101.92;3498957;82;98786;-88
2021/03/24 21:51:59;;;;;;;68.22;36.13;;;;;;;6.99;73.44;101094.34;3503588;83;31395;-87
2021/03/24 21:57:09;;;;;;;74.77;38.13;;;;;;;7.14;73.22;101101.92;3503731;82;98302;-87
2021/03/24 22:02:38;;;;;;;65.13;35.20;;;;;;;7.22;73.14;101098.28;3506597;83;28554;-87
2021/03/24 22:07:39;;;;;;;59.90;32.40;;;;;;;7.15;73.01;101093.94;3484296;83;32097;-87
2021/03/24 22:12:44;;;;;;;63.73;33.70;;;;;;;7.11;73.12;101089.72;3487753;83;98694;-87
2021/03/24 22:18:04;;;;;;;60.20;32.33;;;;;;;7.09;73.15;101092.55;3300343;88;26200;-87
2021/03/24 22:23:08;;;;;;;64.60;34.00;;;;;;;7.00;73.43;101095.94;3421462;85;98526;-87
2021/03/24 22:28:37;;;;;;;70.07;34.53;;;;;;;6.87;73.76;101094.30;3438989;85;30397;-86
2021/03/24 22:34:06;;;;;;;71.40;36.13;;;;;;;6.85;73.72;101089.72;3429857;85;98459;-86
2021/03/24 22:39:33;;;;;;;64.07;31.73;;;;;;;6.75;73.87;101088.75;3305687;88;30467;-87
2021/03/24 22:44:36;;;;;;;;;;;;;;;6.63;73.79;101088.14;3293880;88;98907;-87
2021/03/24 22:50:09;;;;;;;61.60;30.35;;;;;;;6.47;74.23;101086.34;3424288;85;32186;-86
2021/03/24 22:55:40;;;;;;;66.27;33.27;;;;;;;6.34;74.04;101081.94;3410146;85;98329;-86
2021/03/24 23:00:46;;;;;;;68.00;32.50;;;;;;;6.15;74.21;101078.84;3307641;88;25797;-86
2021/03/24 23:05:48;;;;;;;64.83;33.20;;;;;;;6.02;74.53;101084.00;3425048;85;98718;-87
2021/03/24 23:10:51;;;;;;;66.50;32.63;;;;;;;5.96;74.80;101087.50;3430535;85;32214;-85
2021/03/24 23:16:17;;;;;;;76.97;35.77;;;;;;;5.92;75.00;101089.84;3476033;82;98378;-86
2021/03/24 23:21:20;;;;;;;66.80;36.08;;;;;;;5.91;74.88;101084.14;3499482;83;32285;-86
2021/03/24 23:26:26;;;;;;;70.60;36.15;;;;;;;5.84;74.89;101076.45;3491014;82;98391;-86
2021/03/24 23:31:27;;;;;;;63.57;34.87;;;;;;;5.70;74.81;101077.24;3498154;83;26000;-86
2021/03/24 23:36:27;;;;;;;73.40;37.27;;;;;;;5.51;74.77;101087.75;3495097;83;98401;-87
2021/03/24 23:41:28;;;;;;;76.17;37.43;;;;;;;5.33;74.90;101081.31;3498549;83;31566;-85
2021/03/24 23:46:30;;;;;;;81.63;38.03;;;;;;;5.06;75.00;101079.78;3494826;83;98481;-86
2021/03/24 23:51:31;;;;;;;85.90;39.30;;;;;;;4.78;75.44;101066.83;3500262;83;32478;-86
2021/03/24 23:56:35;;;;;;;85.70;37.87;;;;;;;4.63;75.84;101070.86;3501967;82;98203;-87
